createdAt,value
2019-05-17T00:00:57.324Z,101103.82
2019-05-17T00:01:57.706Z,101102.48
2019-05-17T00:02:57.237Z,101101.34
2019-05-17T00:03:57.411Z,101100.42
2019-05-17T00:04:58.904Z,101098.65
2019-05-17T00:05:59.294Z,101097.97
2019-05-17T00:06:59.813Z,101097.59
2019-05-17T00:08:00.325Z,101096.23
2019-05-17T00:09:00.767Z,101095.81
2019-05-17T00:10:01.268Z,101094.92
2019-05-17T00:11:01.670Z,101093.91
2019-05-17T00:12:02.179Z,101093.02
2019-05-17T00:13:02.792Z,101092.34
2019-05-17T00:14:03.308Z,101091.08
2019-05-17T00:15:03.738Z,101090.16
2019-05-17T00:16:04.287Z,101089.56
2019-05-17T00:17:06.484Z,101089.00
2019-05-17T00:18:03.744Z,101088.50
2019-05-17T00:19:07.536Z,101087.16
2019-05-17T00:20:06.278Z,101086.00
2019-05-17T00:21:07.677Z,101085.00
2019-05-17T00:22:07.298Z,101083.34
2019-05-17T00:23:07.258Z,101082.08
2019-05-17T00:24:06.863Z,101080.59
2019-05-17T00:25:07.567Z,101079.50
2019-05-17T00:26:07.669Z,101077.98
2019-05-17T00:27:09.625Z,101076.08
2019-05-17T00:28:09.799Z,101075.09
2019-05-17T00:29:10.624Z,101074.25
2019-05-17T00:30:11.072Z,101073.36
2019-05-17T00:31:11.572Z,101072.02
2019-05-17T00:32:12.318Z,101070.92
2019-05-17T00:32:20.857Z,101054.94
2019-05-17T00:33:22.657Z,101054.77
2019-05-17T00:34:23.393Z,101054.52
2019-05-17T00:35:26.790Z,101054.77
2019-05-17T00:36:24.017Z,101054.77
2019-05-17T00:37:26.458Z,101054.27
2019-05-17T00:38:27.456Z,101053.93
2019-05-17T00:39:28.990Z,101054.02
2019-05-17T00:40:27.377Z,101051.94
2019-05-17T00:41:27.677Z,101051.57
2019-05-17T00:42:28.177Z,101050.89
2019-05-17T00:43:28.791Z,101050.39
2019-05-17T00:44:29.683Z,101050.22
2019-05-17T00:45:30.199Z,101050.39
2019-05-17T00:46:30.699Z,101050.22
2019-05-17T00:47:31.143Z,101050.05
2019-05-17T00:48:31.642Z,101049.88
2019-05-17T00:49:32.366Z,101049.80
2019-05-17T00:50:32.863Z,101049.46
2019-05-17T00:51:33.296Z,101048.79
2019-05-17T00:52:33.747Z,101048.53
2019-05-17T00:53:36.173Z,101047.69
2019-05-17T00:54:33.563Z,101047.61
2019-05-17T00:55:36.276Z,101047.10
2019-05-17T00:56:34.496Z,101046.42
2019-05-17T00:57:36.963Z,101045.92
2019-05-17T00:58:37.042Z,101045.33
2019-05-17T00:59:36.933Z,101044.20
2019-05-17T01:00:37.544Z,101043.70
2019-05-17T01:01:37.212Z,101042.43
2019-05-17T01:02:38.955Z,101041.89
2019-05-17T01:03:39.458Z,101041.55
2019-05-17T01:04:40.027Z,101040.03
2019-05-17T01:05:40.035Z,101039.19
2019-05-17T01:06:40.472Z,101038.27
2019-05-17T01:07:40.958Z,101037.25
2019-05-17T01:08:41.356Z,101036.16
2019-05-17T01:09:41.694Z,101034.81
2019-05-17T01:10:42.152Z,101034.22
2019-05-17T01:11:42.784Z,101033.05
2019-05-17T01:12:43.281Z,101032.45
2019-05-17T01:13:44.171Z,101031.95
2019-05-17T01:14:46.511Z,101031.77
2019-05-17T01:15:44.047Z,101031.10
2019-05-17T01:16:47.483Z,101030.59
2019-05-17T01:17:47.258Z,101029.67
2019-05-17T01:18:47.059Z,101029.16
2019-05-17T01:19:47.253Z,101028.41
2019-05-17T01:20:47.565Z,101027.48
2019-05-17T01:21:47.975Z,101026.64
2019-05-17T01:22:49.770Z,101025.58
2019-05-17T01:23:50.201Z,101025.06
2019-05-17T01:24:50.745Z,101024.22
2019-05-17T01:25:51.345Z,101023.38
2019-05-17T01:26:51.984Z,101022.38
2019-05-17T01:27:00.504Z,101012.66
2019-05-17T01:28:02.051Z,101011.91
2019-05-17T01:29:02.294Z,101011.48
2019-05-17T01:30:02.643Z,101010.98
2019-05-17T01:31:03.221Z,101010.81
2019-05-17T01:32:06.517Z,101009.97
2019-05-17T01:33:03.601Z,101009.84
2019-05-17T01:34:07.141Z,101009.00
2019-05-17T01:35:07.011Z,101007.48
2019-05-17T01:36:06.817Z,101007.23
2019-05-17T01:37:06.480Z,101007.23
2019-05-17T01:38:07.331Z,101007.23
2019-05-17T01:39:15.197Z,101006.73
2019-05-17T01:40:07.073Z,101006.14
2019-05-17T01:41:07.673Z,101005.47
2019-05-17T01:42:09.427Z,101005.08
2019-05-17T01:43:09.951Z,101004.49
2019-05-17T01:44:10.476Z,101003.91
2019-05-17T01:45:11.150Z,101003.17
2019-05-17T01:46:11.725Z,101002.59
2019-05-17T01:47:12.061Z,101002.42
2019-05-17T01:48:12.519Z,101001.32
2019-05-17T01:49:13.123Z,101001.41
2019-05-17T01:50:13.761Z,101000.73
2019-05-17T01:51:16.747Z,101000.39
2019-05-17T01:52:13.971Z,100999.72
